createdAt,value
2017-08-26T00:00:26.207Z,63.92
2017-08-26T00:02:58.506Z,63.36
2017-08-26T00:05:24.577Z,62.84
2017-08-26T00:07:50.675Z,63.48
2017-08-26T00:10:16.780Z,63.01
2017-08-26T00:12:42.835Z,63.93
2017-08-26T00:15:08.897Z,64.70
2017-08-26T00:17:34.980Z,66.14
2017-08-26T00:20:01.064Z,66.46
2017-08-26T00:22:27.125Z,66.27
2017-08-26T00:24:53.206Z,65.93
2017-08-26T00:27:19.263Z,66.33
2017-08-26T00:29:45.371Z,66.95
2017-08-26T00:32:11.455Z,67.46
2017-08-26T00:34:37.587Z,68.19
2017-08-26T00:37:03.661Z,68.90
2017-08-26T00:39:29.730Z,69.15
2017-08-26T00:41:55.790Z,69.58
2017-08-26T00:44:22.019Z,70.21
2017-08-26T00:46:48.090Z,70.81
2017-08-26T00:49:14.185Z,69.94
2017-08-26T00:51:40.280Z,70.14
2017-08-26T00:54:06.339Z,69.86
2017-08-26T00:56:32.421Z,70.59
2017-08-26T00:58:58.507Z,71.09
2017-08-26T01:01:24.639Z,71.02
2017-08-26T01:03:50.744Z,70.93
2017-08-26T01:06:16.858Z,70.77
2017-08-26T01:08:42.961Z,70.49
2017-08-26T01:11:09.055Z,70.62
2017-08-26T01:13:35.104Z,70.96
2017-08-26T01:16:01.187Z,70.74
2017-08-26T01:18:27.263Z,70.77
2017-08-26T01:20:53.337Z,70.78
2017-08-26T01:23:19.409Z,71.54
2017-08-26T01:25:45.483Z,72.53
2017-08-26T01:28:11.578Z,72.77
2017-08-26T01:30:37.674Z,72.99
2017-08-26T01:33:03.767Z,72.65
2017-08-26T01:35:29.844Z,72.58
2017-08-26T01:37:56.383Z,73.72
2017-08-26T01:40:22.485Z,73.54
2017-08-26T01:42:48.641Z,73.71
2017-08-26T01:45:14.770Z,72.72
2017-08-26T01:47:40.871Z,73.36
2017-08-26T01:50:06.942Z,73.76
2017-08-26T01:52:33.021Z,74.28
2017-08-26T01:54:59.111Z,74.07
2017-08-26T01:57:25.194Z,73.88
2017-08-26T01:59:51.261Z,74.55
2017-08-26T02:02:17.337Z,74.17
2017-08-26T02:04:43.427Z,74.01
2017-08-26T02:07:09.499Z,73.95
2017-08-26T02:09:35.592Z,75.17
2017-08-26T02:12:01.675Z,75.58
2017-08-26T02:14:27.769Z,75.75
2017-08-26T02:16:53.890Z,76.09
2017-08-26T02:19:19.994Z,76.64
2017-08-26T02:21:46.083Z,76.85
2017-08-26T02:24:12.168Z,77.40
2017-08-26T02:26:38.259Z,77.05
2017-08-26T02:29:04.331Z,76.94
2017-08-26T02:31:30.437Z,77.68
2017-08-26T02:33:56.533Z,77.58
2017-08-26T02:36:22.620Z,77.34
2017-08-26T02:38:48.756Z,77.13
2017-08-26T02:41:14.860Z,77.27
2017-08-26T02:43:40.922Z,77.39
2017-08-26T02:46:07.046Z,77.82
2017-08-26T02:48:33.125Z,78.17
2017-08-26T02:50:59.238Z,77.99
2017-08-26T02:53:25.326Z,78.04
2017-08-26T02:55:51.414Z,78.19
2017-08-26T02:58:17.564Z,78.29
2017-08-26T03:00:43.652Z,78.18
2017-08-26T03:03:09.719Z,78.57
2017-08-26T03:05:35.820Z,78.60
2017-08-26T03:08:01.914Z,78.07
2017-08-26T03:10:28.002Z,77.67
2017-08-26T03:12:54.106Z,77.74
2017-08-26T03:15:20.188Z,77.78
2017-08-26T03:17:46.273Z,77.76
2017-08-26T03:20:12.366Z,78.24
2017-08-26T03:22:38.460Z,78.69
2017-08-26T03:25:04.589Z,78.97
2017-08-26T03:27:30.717Z,78.92
2017-08-26T03:29:56.830Z,79.15
2017-08-26T03:32:22.923Z,78.66
2017-08-26T03:34:49.031Z,78.78
2017-08-26T03:37:15.151Z,78.79
2017-08-26T03:39:41.276Z,78.79
2017-08-26T03:42:07.436Z,78.75
2017-08-26T03:44:33.510Z,79.02
2017-08-26T03:46:59.645Z,78.80
2017-08-26T03:49:25.776Z,79.33
2017-08-26T03:51:51.854Z,79.48
2017-08-26T03:54:24.715Z,79.13
2017-08-26T03:56:50.791Z,79.08
2017-08-26T03:59:16.929Z,79.43
2017-08-26T04:01:43.028Z,79.36
2017-08-26T04:04:09.101Z,79.68
2017-08-26T04:06:35.177Z,79.82
2017-08-26T04:09:01.273Z,80.08
2017-08-26T04:11:27.343Z,79.74
2017-08-26T04:13:53.411Z,79.43
2017-08-26T04:16:19.502Z,79.48
2017-08-26T04:18:45.603Z,79.91
2017-08-26T04:21:11.779Z,80.35
2017-08-26T04:23:37.884Z,79.99
2017-08-26T04:26:03.974Z,79.31
2017-08-26T04:28:30.118Z,79.47
2017-08-26T04:30:56.185Z,79.47
2017-08-26T04:33:22.291Z,79.39
2017-08-26T04:35:48.376Z,79.20
2017-08-26T04:38:14.467Z,79.29
2017-08-26T04:40:40.605Z,79.50
2017-08-26T04:43:06.731Z,78.95
2017-08-26T04:45:32.858Z,78.54
2017-08-26T04:47:58.945Z,78.16
2017-08-26T04:50:25.097Z,77.44
2017-08-26T04:52:51.199Z,76.77
2017-08-26T04:55:17.317Z,76.44
2017-08-26T04:57:43.415Z,76.28
2017-08-26T05:00:09.501Z,75.82
2017-08-26T05:02:35.587Z,75.30
2017-08-26T05:05:01.743Z,75.26
2017-08-26T05:07:27.819Z,74.63
2017-08-26T05:09:53.896Z,74.24
2017-08-26T05:12:20.010Z,73.68
2017-08-26T05:14:46.063Z,73.45
2017-08-26T05:17:12.167Z,73.47
2017-08-26T05:19:38.275Z,73.40
2017-08-26T05:22:04.347Z,73.56
2017-08-26T05:24:30.387Z,73.34
2017-08-26T05:26:56.542Z,72.37
2017-08-26T05:29:22.605Z,71.04
2017-08-26T05:31:48.681Z,69.96
2017-08-26T05:34:14.763Z,69.93
2017-08-26T05:36:41.153Z,69.61
2017-08-26T05:39:07.285Z,69.73
2017-08-26T05:41:33.416Z,70.10
2017-08-26T05:43:59.483Z,69.43
2017-08-26T05:46:25.584Z,69.03
2017-08-26T05:48:51.723Z,69.02
2017-08-26T05:51:17.817Z,68.94
2017-08-26T05:53:44.411Z,69.06
2017-08-26T05:56:10.536Z,69.03
2017-08-26T05:58:36.665Z,69.56
2017-08-26T06:01:02.733Z,69.37
2017-08-26T06:03:28.870Z,68.99
2017-08-26T06:05:54.986Z,69.36
2017-08-26T06:08:21.110Z,68.72
2017-08-26T06:10:47.331Z,67.91
2017-08-26T06:13:13.799Z,67.97
2017-08-26T06:15:39.934Z,67.48
2017-08-26T06:18:06.070Z,67.55
2017-08-26T06:20:32.132Z,66.44
2017-08-26T06:22:58.260Z,66.71
2017-08-26T06:25:24.363Z,65.77
2017-08-26T06:27:50.456Z,65.59
2017-08-26T06:30:16.881Z,65.47
2017-08-26T06:32:43.149Z,65.72
2017-08-26T06:35:09.240Z,65.65
2017-08-26T06:37:35.377Z,64.88
2017-08-26T06:40:01.519Z,63.98
2017-08-26T06:42:27.589Z,63.84
2017-08-26T06:44:53.669Z,63.89
2017-08-26T06:47:19.754Z,63.60
2017-08-26T06:49:45.858Z,63.03
2017-08-26T06:52:12.011Z,63.21
2017-08-26T06:54:38.159Z,62.67
2017-08-26T06:57:04.279Z,63.32
2017-08-26T06:59:30.365Z,62.29
2017-08-26T07:01:56.442Z,61.84
2017-08-26T07:04:22.586Z,61.78
2017-08-26T07:06:48.666Z,62.25
2017-08-26T07:09:14.776Z,61.99
2017-08-26T07:11:40.868Z,61.81
2017-08-26T07:14:06.948Z,62.11
2017-08-26T07:16:33.077Z,62.72
2017-08-26T07:18:59.190Z,62.51
2017-08-26T07:21:25.324Z,61.96
2017-08-26T07:23:51.582Z,62.12
2017-08-26T07:26:17.736Z,61.41
2017-08-26T07:28:43.808Z,60.36
2017-08-26T07:31:09.909Z,58.33
2017-08-26T07:33:36.024Z,57.74
2017-08-26T07:36:02.156Z,57.25
2017-08-26T07:38:28.272Z,57.91
2017-08-26T07:40:54.362Z,57.81
2017-08-26T07:43:20.442Z,57.64
2017-08-26T07:45:46.540Z,57.29
2017-08-26T07:48:12.656Z,58.46
2017-08-26T07:50:38.770Z,57.88
2017-08-26T07:53:04.858Z,59.51
2017-08-26T07:55:30.949Z,60.44
2017-08-26T07:57:57.123Z,62.25
2017-08-26T08:00:23.217Z,64.22
2017-08-26T08:02:56.379Z,65.33
2017-08-26T08:05:22.501Z,65.22
2017-08-26T08:07:48.596Z,66.38
2017-08-26T08:10:14.823Z,66.19
2017-08-26T08:12:40.951Z,66.04
2017-08-26T08:15:07.075Z,66.08
2017-08-26T08:17:33.195Z,66.17
2017-08-26T08:19:59.401Z,65.78
2017-08-26T08:22:25.499Z,64.53
2017-08-26T08:24:51.650Z,63.16
2017-08-26T08:27:17.775Z,62.74
2017-08-26T08:29:44.898Z,61.76
2017-08-26T08:32:11.008Z,62.43
2017-08-26T08:34:37.109Z,62.20
2017-08-26T08:37:03.912Z,63.94
2017-08-26T08:39:30.037Z,65.01
2017-08-26T08:41:56.542Z,65.11
2017-08-26T08:44:22.775Z,65.60
2017-08-26T08:46:48.874Z,66.47
2017-08-26T08:49:15.015Z,68.18
2017-08-26T08:51:41.184Z,68.63
2017-08-26T08:54:07.339Z,70.18
2017-08-26T08:56:33.463Z,71.16
2017-08-26T08:58:59.565Z,71.96
2017-08-26T09:01:25.663Z,70.99
2017-08-26T09:03:51.760Z,71.90
2017-08-26T09:06:18.527Z,71.69
2017-08-26T09:08:44.642Z,72.35
2017-08-26T09:11:10.766Z,73.07
2017-08-26T09:13:36.930Z,72.94
2017-08-26T09:16:03.270Z,73.25
2017-08-26T09:18:29.438Z,73.51
2017-08-26T09:20:55.548Z,72.85
2017-08-26T09:23:21.664Z,72.13
2017-08-26T09:25:47.800Z,71.59
2017-08-26T09:28:14.022Z,72.14
2017-08-26T09:30:40.105Z,70.51
2017-08-26T09:33:06.224Z,68.45
2017-08-26T09:35:32.384Z,69.67
2017-08-26T09:37:58.496Z,70.03
2017-08-26T09:40:24.592Z,69.49
2017-08-26T09:42:50.856Z,67.96
2017-08-26T09:45:17.191Z,66.60
2017-08-26T09:47:43.453Z,66.67
2017-08-26T09:50:09.614Z,66.10
2017-08-26T09:52:35.700Z,64.53
2017-08-26T09:55:01.809Z,62.46
2017-08-26T09:57:27.977Z,62.74
2017-08-26T09:59:54.084Z,61.50
2017-08-26T10:02:20.172Z,59.62
2017-08-26T10:04:46.301Z,57.78
2017-08-26T10:07:19.572Z,55.92
2017-08-26T10:09:45.687Z,56.35
2017-08-26T10:12:11.816Z,53.65
2017-08-26T10:14:37.883Z,53.75
2017-08-26T10:17:04.010Z,52.47
2017-08-26T10:19:30.099Z,52.22
2017-08-26T10:21:56.199Z,53.55
2017-08-26T10:24:22.296Z,51.52
2017-08-26T10:26:48.408Z,51.57
2017-08-26T10:29:14.531Z,51.97
2017-08-26T10:31:40.681Z,52.85
2017-08-26T10:34:06.764Z,51.27
2017-08-26T10:36:32.864Z,49.07
2017-08-26T10:38:58.994Z,48.90
2017-08-26T10:41:25.084Z,49.70
2017-08-26T10:43:52.074Z,49.21
2017-08-26T10:46:18.253Z,49.03
2017-08-26T10:48:44.354Z,48.11
2017-08-26T10:51:10.463Z,47.77
2017-08-26T10:53:36.577Z,48.35
2017-08-26T10:56:02.663Z,46.37
2017-08-26T10:58:28.827Z,45.77
2017-08-26T11:00:54.940Z,43.99
2017-08-26T11:03:21.067Z,47.12
2017-08-26T11:05:47.247Z,47.57
2017-08-26T11:08:13.369Z,47.78
2017-08-26T11:10:39.569Z,47.22
2017-08-26T11:13:05.845Z,48.71
2017-08-26T11:15:31.984Z,48.09
2017-08-26T11:17:58.037Z,49.43
2017-08-26T11:20:24.204Z,49.85
2017-08-26T11:22:50.274Z,49.07
2017-08-26T11:25:16.407Z,49.41
2017-08-26T11:27:42.537Z,50.48
2017-08-26T11:30:08.609Z,49.60
2017-08-26T11:32:34.684Z,49.95
2017-08-26T11:35:00.754Z,48.01
2017-08-26T11:37:26.834Z,46.91
2017-08-26T11:39:52.950Z,44.12
2017-08-26T11:42:19.068Z,40.90
2017-08-26T11:44:45.149Z,37.90
2017-08-26T11:47:11.241Z,34.93
2017-08-26T11:49:37.337Z,31.17
2017-08-26T11:52:03.407Z,28.46
2017-08-26T11:54:29.494Z,25.03
2017-08-26T11:56:55.580Z,23.70
2017-08-26T11:59:21.658Z,21.93
2017-08-26T12:01:47.742Z,20.69
2017-08-26T12:04:13.824Z,19.50
2017-08-26T12:06:40.436Z,18.12
2017-08-26T12:09:06.561Z,17.00
2017-08-26T12:11:32.616Z,16.14
2017-08-26T12:13:58.682Z,15.31
2017-08-26T12:16:24.770Z,13.73
2017-08-26T12:18:50.864Z,13.33
2017-08-26T12:21:18.006Z,12.40
2017-08-26T12:23:44.110Z,14.10
2017-08-26T12:26:10.214Z,16.95
2017-08-26T12:28:36.273Z,20.15
2017-08-26T12:31:02.354Z,21.32
2017-08-26T12:33:28.751Z,22.31
2017-08-26T12:35:54.838Z,21.49
2017-08-26T12:38:20.962Z,21.87
2017-08-26T12:40:47.126Z,19.45
2017-08-26T12:43:13.234Z,19.09
2017-08-26T12:45:39.365Z,17.54
2017-08-26T12:48:05.509Z,18.07
2017-08-26T12:50:31.640Z,17.66
2017-08-26T12:52:57.739Z,15.67
2017-08-26T12:55:23.902Z,14.98
2017-08-26T12:57:50.085Z,14.26
2017-08-26T13:00:16.286Z,12.62
2017-08-26T13:02:42.402Z,13.07
2017-08-26T13:05:08.500Z,12.57
2017-08-26T13:07:34.649Z,11.07
2017-08-26T13:10:00.818Z,10.29
2017-08-26T13:12:27.012Z,9.83
2017-08-26T13:14:53.121Z,9.45
2017-08-26T13:17:19.233Z,9.96
2017-08-26T13:19:45.389Z,10.11
2017-08-26T13:22:11.486Z,10.14
2017-08-26T13:24:37.618Z,9.72
2017-08-26T13:27:03.827Z,9.96
2017-08-26T13:29:29.926Z,9.79
2017-08-26T13:31:56.075Z,9.58
2017-08-26T13:34:22.197Z,10.42
2017-08-26T13:36:48.293Z,11.19
2017-08-26T13:39:14.418Z,10.77
2017-08-26T13:41:40.528Z,10.10
2017-08-26T13:44:06.641Z,10.11
2017-08-26T13:46:32.831Z,9.86
2017-08-26T13:48:58.949Z,9.85
2017-08-26T13:51:25.021Z,9.35
2017-08-26T13:53:51.145Z,9.63
2017-08-26T13:56:17.257Z,9.44
2017-08-26T13:58:43.549Z,9.79
2017-08-26T14:01:09.654Z,10.19
2017-08-26T14:03:35.757Z,11.23
2017-08-26T14:06:01.879Z,11.21
2017-08-26T14:08:27.944Z,10.85
2017-08-26T14:10:54.917Z,9.93
2017-08-26T14:13:21.042Z,10.18
2017-08-26T14:15:47.175Z,9.66
2017-08-26T14:18:13.461Z,9.72
2017-08-26T14:20:39.584Z,9.72
2017-08-26T14:23:05.681Z,9.73
2017-08-26T14:25:31.807Z,10.35
2017-08-26T14:27:57.994Z,9.74
2017-08-26T14:30:24.111Z,9.44
2017-08-26T14:32:50.214Z,9.53
2017-08-26T14:35:16.335Z,9.56
2017-08-26T14:37:42.431Z,9.70
2017-08-26T14:40:08.540Z,10.58
2017-08-26T14:42:34.657Z,10.50
2017-08-26T14:45:00.735Z,10.79
2017-08-26T14:47:26.890Z,10.99
2017-08-26T14:49:53.039Z,10.59
2017-08-26T14:52:19.113Z,9.92
2017-08-26T14:54:45.249Z,10.53
2017-08-26T14:57:11.345Z,11.25
2017-08-26T14:59:37.442Z,11.94
2017-08-26T15:02:03.590Z,11.28
2017-08-26T15:04:29.769Z,10.74
2017-08-26T15:06:56.252Z,11.03
2017-08-26T15:09:22.591Z,10.74
2017-08-26T15:11:48.773Z,11.62
2017-08-26T15:14:14.960Z,11.47
2017-08-26T15:16:41.068Z,11.53
2017-08-26T15:19:07.291Z,11.41
2017-08-26T15:21:33.589Z,11.57
2017-08-26T15:24:00.116Z,11.10
2017-08-26T15:26:26.388Z,11.56
2017-08-26T15:28:52.554Z,11.67
2017-08-26T15:31:18.910Z,12.20
2017-08-26T15:33:45.102Z,12.05
2017-08-26T15:36:11.241Z,12.83
2017-08-26T15:38:37.402Z,13.68
2017-08-26T15:41:03.524Z,13.62
2017-08-26T15:43:29.625Z,14.18
2017-08-26T15:45:55.912Z,14.77
2017-08-26T15:48:22.018Z,15.49
2017-08-26T15:50:48.100Z,16.80
2017-08-26T15:53:14.245Z,17.52
2017-08-26T15:55:47.370Z,17.05
2017-08-26T15:58:13.457Z,17.38
2017-08-26T16:03:12.576Z,19.41
2017-08-26T16:05:38.679Z,19.43
2017-08-26T16:08:04.782Z,19.42
2017-08-26T16:10:30.912Z,19.20
2017-08-26T16:12:57.044Z,19.22
2017-08-26T16:15:23.192Z,19.65
2017-08-26T16:17:49.344Z,20.07
2017-08-26T16:20:15.440Z,21.44
2017-08-26T16:22:41.565Z,22.29
2017-08-26T16:25:07.671Z,22.49
2017-08-26T16:27:33.762Z,22.49
2017-08-26T16:29:59.888Z,23.17
2017-08-26T16:32:26.017Z,24.76
2017-08-26T16:34:52.195Z,27.05
2017-08-26T16:37:18.368Z,29.02
2017-08-26T16:39:44.476Z,30.96
2017-08-26T16:42:10.567Z,32.30
2017-08-26T16:44:36.723Z,33.52
2017-08-26T16:47:02.803Z,34.11
2017-08-26T16:49:28.948Z,32.90
2017-08-26T16:51:55.057Z,33.74
2017-08-26T16:54:21.157Z,35.36
2017-08-26T16:56:47.326Z,37.42
2017-08-26T16:59:13.413Z,38.77
2017-08-26T17:01:39.502Z,39.87
2017-08-26T17:04:05.609Z,38.68
2017-08-26T17:06:31.969Z,38.13
2017-08-26T17:08:58.090Z,38.14
2017-08-26T17:11:24.179Z,39.03
2017-08-26T17:13:50.338Z,40.13
2017-08-26T17:16:16.425Z,41.43
2017-08-26T17:18:42.573Z,43.07
2017-08-26T17:21:08.696Z,44.13
2017-08-26T17:23:34.805Z,45.01
2017-08-26T17:26:00.946Z,46.35
2017-08-26T17:28:27.093Z,47.46
2017-08-26T17:30:53.199Z,47.51
2017-08-26T17:33:20.245Z,48.36
2017-08-26T17:35:46.363Z,49.60
2017-08-26T17:38:12.473Z,50.55
2017-08-26T17:40:38.589Z,51.25
2017-08-26T17:43:04.673Z,52.17
2017-08-26T17:45:30.754Z,53.06
2017-08-26T17:47:56.891Z,53.79
2017-08-26T17:50:23.656Z,53.71
2017-08-26T17:52:49.779Z,53.76
2017-08-26T17:55:15.869Z,53.89
2017-08-26T17:57:41.985Z,54.11
2017-08-26T18:00:08.077Z,55.14
2017-08-26T18:02:34.420Z,55.40
2017-08-26T18:05:00.502Z,55.60
2017-08-26T18:07:26.613Z,56.44
2017-08-26T18:09:52.784Z,57.04
2017-08-26T18:12:18.874Z,57.07
2017-08-26T18:14:44.964Z,57.70
2017-08-26T18:17:11.127Z,58.23
2017-08-26T18:19:37.245Z,58.98
2017-08-26T18:22:03.339Z,59.04
2017-08-26T18:24:29.506Z,61.45
2017-08-26T18:26:55.583Z,62.88
2017-08-26T18:29:21.715Z,62.65
2017-08-26T18:31:48.132Z,61.57
2017-08-26T18:34:14.225Z,62.20
2017-08-26T18:36:40.328Z,61.80
2017-08-26T18:39:06.536Z,61.39
2017-08-26T18:41:32.736Z,60.85
2017-08-26T18:43:58.879Z,60.66
2017-08-26T18:46:24.986Z,60.56
2017-08-26T18:48:51.060Z,60.78
2017-08-26T18:51:18.053Z,60.99
2017-08-26T18:53:44.180Z,61.24
2017-08-26T18:56:10.581Z,61.59
2017-08-26T18:58:36.855Z,62.21
2017-08-26T19:01:02.962Z,63.04
2017-08-26T19:03:29.063Z,62.10
2017-08-26T19:05:55.191Z,61.61
2017-08-26T19:08:21.333Z,62.01
2017-08-26T19:10:47.457Z,62.00
2017-08-26T19:13:13.576Z,62.66
2017-08-26T19:15:39.668Z,63.75
2017-08-26T19:18:05.751Z,64.12
2017-08-26T19:20:31.849Z,63.69
2017-08-26T19:22:57.981Z,63.08
2017-08-26T19:25:24.126Z,63.20
2017-08-26T19:27:50.329Z,63.21
2017-08-26T19:30:16.448Z,63.44
2017-08-26T19:32:42.585Z,63.86
2017-08-26T19:35:08.676Z,63.79
2017-08-26T19:37:34.775Z,63.53
2017-08-26T19:40:00.872Z,63.30
2017-08-26T19:42:27.009Z,63.11
2017-08-26T19:44:53.461Z,63.54
2017-08-26T19:47:19.547Z,64.48
2017-08-26T19:49:45.751Z,65.03
2017-08-26T19:52:11.861Z,65.51
2017-08-26T19:54:37.940Z,66.12
2017-08-26T19:57:04.108Z,66.23
2017-08-26T19:59:30.193Z,66.57
2017-08-26T20:01:57.180Z,66.93
2017-08-26T20:04:23.327Z,66.84
2017-08-26T20:06:49.449Z,66.64
2017-08-26T20:09:15.573Z,66.31
2017-08-26T20:11:41.707Z,66.39
2017-08-26T20:14:07.910Z,66.79
2017-08-26T20:16:33.994Z,66.83
2017-08-26T20:19:00.080Z,66.25
2017-08-26T20:21:26.192Z,66.36
2017-08-26T20:23:52.265Z,66.53
2017-08-26T20:26:18.375Z,66.93
2017-08-26T20:28:44.488Z,66.96
2017-08-26T20:31:10.629Z,66.60
2017-08-26T20:33:36.772Z,66.17
2017-08-26T20:36:03.038Z,66.35
2017-08-26T20:38:29.153Z,65.66
2017-08-26T20:40:55.253Z,65.86
2017-08-26T20:43:21.394Z,66.60
2017-08-26T20:45:47.468Z,67.52
2017-08-26T20:48:13.642Z,69.87
2017-08-26T20:50:39.794Z,70.72
2017-08-26T20:53:05.917Z,70.77
2017-08-26T20:55:32.293Z,70.72
2017-08-26T20:57:58.498Z,70.96
2017-08-26T21:00:24.576Z,71.81
2017-08-26T21:02:50.726Z,72.14
2017-08-26T21:05:16.827Z,71.87
2017-08-26T21:07:43.087Z,72.75
2017-08-26T21:10:09.176Z,72.22
2017-08-26T21:12:35.281Z,72.14
2017-08-26T21:15:01.408Z,72.68
2017-08-26T21:17:27.646Z,73.53
2017-08-26T21:19:53.902Z,74.59
2017-08-26T21:22:20.042Z,74.66
2017-08-26T21:24:46.152Z,74.86
2017-08-26T21:27:12.265Z,75.66
2017-08-26T21:29:38.405Z,76.47
2017-08-26T21:32:04.518Z,75.98
2017-08-26T21:34:30.652Z,76.74
2017-08-26T21:36:57.014Z,76.36
2017-08-26T21:39:23.134Z,76.55
2017-08-26T21:41:49.413Z,77.09
2017-08-26T21:44:15.682Z,77.27
2017-08-26T21:46:41.799Z,77.70
2017-08-26T21:49:07.892Z,77.48
2017-08-26T21:51:33.995Z,77.71
2017-08-26T21:54:00.077Z,77.45
2017-08-26T21:56:26.167Z,77.86
2017-08-26T21:58:52.248Z,77.57
2017-08-26T22:01:18.363Z,77.60
2017-08-26T22:03:44.461Z,77.33
2017-08-26T22:06:10.575Z,77.27
2017-08-26T22:08:36.721Z,77.00
2017-08-26T22:11:02.825Z,77.10
2017-08-26T22:13:28.918Z,77.01
2017-08-26T22:15:55.054Z,75.20
2017-08-26T22:18:21.131Z,74.88
2017-08-26T22:20:47.255Z,75.09
2017-08-26T22:23:13.324Z,75.06
2017-08-26T22:25:39.435Z,75.27
2017-08-26T22:28:05.533Z,75.39
2017-08-26T22:30:31.699Z,75.37
2017-08-26T22:32:57.823Z,76.16
2017-08-26T22:35:23.945Z,76.79
2017-08-26T22:37:50.029Z,77.05
2017-08-26T22:40:16.131Z,77.12
2017-08-26T22:42:42.209Z,77.17
2017-08-26T22:45:08.311Z,77.42
2017-08-26T22:47:34.390Z,77.76
2017-08-26T22:50:00.563Z,78.16
2017-08-26T22:52:26.709Z,78.25
2017-08-26T22:54:52.828Z,78.46
2017-08-26T22:57:18.947Z,78.74
2017-08-26T22:59:45.017Z,78.45
2017-08-26T23:02:11.153Z,77.76
2017-08-26T23:04:37.247Z,78.08
2017-08-26T23:07:15.597Z,78.43
2017-08-26T23:09:41.697Z,78.65
2017-08-26T23:12:07.753Z,78.67
2017-08-26T23:14:33.856Z,78.84
2017-08-26T23:16:59.979Z,78.31
2017-08-26T23:19:26.051Z,78.21
2017-08-26T23:21:52.155Z,78.18
2017-08-26T23:24:18.241Z,78.00
2017-08-26T23:26:44.351Z,78.01
2017-08-26T23:29:10.459Z,77.97
2017-08-26T23:31:36.517Z,78.01
2017-08-26T23:34:02.633Z,77.93
2017-08-26T23:36:28.696Z,78.11
2017-08-26T23:38:54.787Z,78.34
2017-08-26T23:41:20.888Z,78.57
2017-08-26T23:43:46.969Z,78.51
2017-08-26T23:46:13.047Z,78.84
2017-08-26T23:48:39.173Z,77.78
2017-08-26T23:51:05.241Z,77.80
2017-08-26T23:53:31.482Z,77.78
2017-08-26T23:55:57.599Z,77.36
2017-08-26T23:58:23.699Z,77.42
